Terminal Aerodrome Forecast
Issued by NWS

Home | Current Version | Previous Version | Text Only | Print | Product List | Glossary Off
Versions: 1 2 3 4 5 6 7 8 9 10 11 12 13 14 15 16 17

000
FTUS43 KGRB 210741 AAA
TAFRHI
TAF AMD
KRHI 210741Z 2108/2206 10008KT 5SM -DZ OVC003
      TEMPO 2109/2113 3SM -SHRA
     FM211600 19006KT 6SM -DZ BR VCSH OVC005
     FM212100 24009KT P6SM VCSH OVC012=

USA.gov is the U.S. government's official web portal to all federal, state and local government web resources and services.